Pahoa, HI (96778)

8:20 AM HST on April 24, 2017 (GMT -1000)
Leilani Estates | | Change Station

Elev 768 ft 19.47 °N, 154.92 °W | Updated 13 seconds ago

Mostly Cloudy
Mostly Cloudy
79.9 °F
Feels Like 87 °F
N
2.0
Wind Variable Wind from NNE

Today
High -- | Low -- °F
--% Chance of Precip.
Yesterday
High -- | Low -- °F
Precip. -- in
Pressure 30.12 in
Visibility 10.0 miles
Clouds Scattered Clouds 4500 ft
Mostly Cloudy 22000 ft
Heat Index 87 °F
Dew Point 79 °F
Humidity 98%
Rainfall 0.00 in
Snow Depth Not available.
5:55 AM 6:40 PM
Waning Crescent, 4% visible
METAR PHTO 241753Z 22004KT 10SM SCT045 BKN220 23/16 A3012 RMK AO2 SLP199 T02330156 10233 20183 53021
Pressure 30.12 in
Visibility 10.0 miles
Clouds Scattered Clouds 4500 ft
Mostly Cloudy 22000 ft
Heat Index 87 °F
Dew Point 79 °F
Humidity 98%
Rainfall 0.00 in
Snow Depth Not available.
5:55 AM 6:40 PM
Waning Crescent, 4% visible
METAR PHTO 241753Z 22004KT 10SM SCT045 BKN220 23/16 A3012 RMK AO2 SLP199 T02330156 10233 20183 53021

Get Severe Weather Alerts

Thanks for signing up!

Be on the lookout for a verification email in your inbox.

You'll start receiving the daily forecast at 8 AM.

×

10-Day Weather Forecast

Almanac

Astronomy

Apr. 24, 2017 Rise Set
Actual Time
Civil Twilight
Nautical Twilight
Astronomical Twilight
Moon
Length of Visible Light
Length of Day
Tomorrow will be .
, % of the Moon is Illuminated

Today's Extremes

State Highs State Lows

Community

WunderPhotos

WunderBlog® & News

Nearby

Air Quality

  Air Quality AQ Index Pollutant
Not available.

Snow Depth

Station Depth Elevation

Earthquake Activity

City Distance Mag. Time & Date
Minimum magnitude displayed is 2.5.

Coastal Water Temperatures

Place Temperature

Stations

Nearby Weather Stations

Station Location Temp. Windchill Dew Point Humidity Wind Precip. Elev Updated Type
                   

Watches & Warnings

There are currently no watches in effect.